sensor_id;sensor_type;location;lat;lon;timestamp;P1;durP1;ratioP1;P2;durP2;ratioP2
14052;SDS011;7101;51.600;7.310;2023-02-28T00:00:31;4.55;;;2.92;;
14052;SDS011;7101;51.600;7.310;2023-02-28T00:02:58;6.57;;;2.92;;
14052;SDS011;7101;51.600;7.310;2023-02-28T00:05:26;4.03;;;2.67;;
14052;SDS011;7101;51.600;7.310;2023-02-28T00:07:54;4.20;;;2.80;;
14052;SDS011;7101;51.600;7.310;2023-02-28T00:10:22;5.10;;;3.05;;
14052;SDS011;7101;51.600;7.310;2023-02-28T00:12:51;6.32;;;2.70;;
14052;SDS011;7101;51.600;7.310;2023-02-28T00:15:22;3.97;;;2.58;;
14052;SDS011;7101;51.600;7.310;2023-02-28T00:17:51;3.40;;;2.20;;
14052;SDS011;7101;51.600;7.310;2023-02-28T00:20:18;4.15;;;2.35;;
14052;SDS011;7101;51.600;7.310;2023-02-28T00:22:46;4.57;;;2.50;;
14052;SDS011;7101;51.600;7.310;2023-02-28T00:25:15;4.93;;;2.30;;
14052;SDS011;7101;51.600;7.310;2023-02-28T00:27:43;3.85;;;2.33;;
14052;SDS011;7101;51.600;7.310;2023-02-28T00:30:11;4.28;;;2.10;;
14052;SDS011;7101;51.600;7.310;2023-02-28T00:32:40;4.55;;;2.15;;
14052;SDS011;7101;51.600;7.310;2023-02-28T00:35:09;3.10;;;2.10;;
14052;SDS011;7101;51.600;7.310;2023-02-28T00:37:37;2.83;;;2.03;;
14052;SDS011;7101;51.600;7.310;2023-02-28T00:40:05;6.35;;;2.40;;
14052;SDS011;7101;51.600;7.310;2023-02-28T00:42:34;5.90;;;2.60;;
14052;SDS011;7101;51.600;7.310;2023-02-28T00:45:01;3.25;;;2.15;;
14052;SDS011;7101;51.600;7.310;2023-02-28T00:47:29;4.70;;;2.33;;
14052;SDS011;7101;51.600;7.310;2023-02-28T00:49:56;3.58;;;2.15;;
14052;SDS011;7101;51.600;7.310;2023-02-28T00:52:25;2.90;;;2.13;;
14052;SDS011;7101;51.600;7.310;2023-02-28T00:54:53;6.93;;;2.53;;
14052;SDS011;7101;51.600;7.310;2023-02-28T00:57:20;5.97;;;2.22;;
14052;SDS011;7101;51.600;7.310;2023-02-28T00:59:47;4.47;;;2.28;;
14052;SDS011;7101;51.600;7.310;2023-02-28T01:02:14;3.35;;;2.13;;
14052;SDS011;7101;51.600;7.310;2023-02-28T01:04:43;3.85;;;2.15;;
14052;SDS011;7101;51.600;7.310;2023-02-28T01:07:10;4.40;;;2.38;;
14052;SDS011;7101;51.600;7.310;2023-02-28T01:09:38;2.58;;;1.95;;
14052;SDS011;7101;51.600;7.310;2023-02-28T01:12:05;2.70;;;1.90;;
14052;SDS011;7101;51.600;7.310;2023-02-28T01:14:33;4.88;;;2.30;;
14052;SDS011;7101;51.600;7.310;2023-02-28T01:17:01;3.37;;;2.30;;
14052;SDS011;7101;51.600;7.310;2023-02-28T01:19:28;3.10;;;1.88;;
14052;SDS011;7101;51.600;7.310;2023-02-28T01:21:55;5.32;;;2.10;;
14052;SDS011;7101;51.600;7.310;2023-02-28T01:24:21;3.20;;;1.83;;
14052;SDS011;7101;51.600;7.310;2023-02-28T01:26:50;2.88;;;1.80;;
14052;SDS011;7101;51.600;7.310;2023-02-28T01:29:18;2.90;;;1.70;;
14052;SDS011;7101;51.600;7.310;2023-02-28T01:31:44;3.88;;;2.20;;
14052;SDS011;7101;51.600;7.310;2023-02-28T01:34:12;2.10;;;1.63;;
14052;SDS011;7101;51.600;7.310;2023-02-28T01:36:39;2.10;;;1.70;;
14052;SDS011;7101;51.600;7.310;2023-02-28T01:39:06;6.13;;;2.22;;
14052;SDS011;7101;51.600;7.310;2023-02-28T01:41:33;2.95;;;1.80;;
14052;SDS011;7101;51.600;7.310;2023-02-28T01:44:03;3.63;;;1.90;;
14052;SDS011;7101;51.600;7.310;2023-02-28T01:46:34;3.30;;;1.83;;
14052;SDS011;7101;51.600;7.310;2023-02-28T01:49:03;3.13;;;1.67;;
14052;SDS011;7101;51.600;7.310;2023-02-28T01:51:37;3.97;;;2.13;;
14052;SDS011;7101;51.600;7.310;2023-02-28T01:54:12;4.43;;;2.07;;
14052;SDS011;7101;51.600;7.310;2023-02-28T01:56:45;3.40;;;1.90;;
14052;SDS011;7101;51.600;7.310;2023-02-28T01:59:18;4.20;;;1.80;;
14052;SDS011;7101;51.600;7.310;2023-02-28T02:01:51;3.20;;;1.80;;
14052;SDS011;7101;51.600;7.310;2023-02-28T02:04:19;2.97;;;2.03;;
14052;SDS011;7101;51.600;7.310;2023-02-28T02:07:08;3.30;;;1.85;;
14052;SDS011;7101;51.600;7.310;2023-02-28T02:09:35;6.43;;;2.13;;
14052;SDS011;7101;51.600;7.310;2023-02-28T02:12:03;5.97;;;1.97;;
14052;SDS011;7101;51.600;7.310;2023-02-28T02:14:43;7.13;;;2.00;;
14052;SDS011;7101;51.600;7.310;2023-02-28T02:17:26;4.60;;;1.93;;
14052;SDS011;7101;51.600;7.310;2023-02-28T02:20:06;2.77;;;1.70;;
14052;SDS011;7101;51.600;7.310;2023-02-28T02:23:18;4.70;;;1.97;;
14052;SDS011;7101;51.600;7.310;2023-02-28T02:26:10;6.00;;;2.03;;
14052;SDS011;7101;51.600;7.310;2023-02-28T02:32:01;1.93;;;1.67;;
14052;SDS011;7101;51.600;7.310;2023-02-28T02:34:44;2.93;;;1.93;;
14052;SDS011;7101;51.600;7.310;2023-02-28T02:37:24;2.33;;;1.77;;
14052;SDS011;7101;51.600;7.310;2023-02-28T02:39:58;3.90;;;1.97;;
14052;SDS011;7101;51.600;7.310;2023-02-28T02:42:31;3.07;;;1.70;;
14052;SDS011;7101;51.600;7.310;2023-02-28T02:45:06;5.90;;;1.87;;
14052;SDS011;7101;51.600;7.310;2023-02-28T02:47:35;2.77;;;1.70;;
14052;SDS011;7101;51.600;7.310;2023-02-28T02:50:07;4.30;;;1.90;;
14052;SDS011;7101;51.600;7.310;2023-02-28T02:52:40;5.40;;;1.73;;
14052;SDS011;7101;51.600;7.310;2023-02-28T02:55:12;2.83;;;1.50;;
14052;SDS011;7101;51.600;7.310;2023-02-28T02:57:43;3.30;;;1.70;;
14052;SDS011;7101;51.600;7.310;2023-02-28T03:00:13;3.67;;;1.97;;
14052;SDS011;7101;51.600;7.310;2023-02-28T03:02:43;3.57;;;1.80;;
14052;SDS011;7101;51.600;7.310;2023-02-28T03:05:14;3.40;;;1.67;;
14052;SDS011;7101;51.600;7.310;2023-02-28T03:07:46;5.50;;;2.07;;
14052;SDS011;7101;51.600;7.310;2023-02-28T03:10:27;4.67;;;1.77;;
14052;SDS011;7101;51.600;7.310;2023-02-28T03:12:57;2.40;;;1.57;;
14052;SDS011;7101;51.600;7.310;2023-02-28T03:15:38;2.57;;;1.80;;
14052;SDS011;7101;51.600;7.310;2023-02-28T03:18:22;2.67;;;1.77;;
14052;SDS011;7101;51.600;7.310;2023-02-28T03:20:58;2.60;;;1.60;;
14052;SDS011;7101;51.600;7.310;2023-02-28T03:23:34;2.80;;;1.43;;
14052;SDS011;7101;51.600;7.310;2023-02-28T03:26:06;3.37;;;1.70;;
14052;SDS011;7101;51.600;7.310;2023-02-28T03:28:43;2.23;;;1.73;;
14052;SDS011;7101;51.600;7.310;2023-02-28T03:31:18;4.00;;;1.90;;
14052;SDS011;7101;51.600;7.310;2023-02-28T03:33:49;3.67;;;1.70;;
14052;SDS011;7101;51.600;7.310;2023-02-28T03:36:22;2.53;;;1.70;;
14052;SDS011;7101;51.600;7.310;2023-02-28T03:38:54;2.37;;;1.70;;
14052;SDS011;7101;51.600;7.310;2023-02-28T03:41:27;2.85;;;1.77;;
14052;SDS011;7101;51.600;7.310;2023-02-28T03:43:59;1.63;;;1.20;;
14052;SDS011;7101;51.600;7.310;2023-02-28T03:46:31;2.77;;;1.70;;
14052;SDS011;7101;51.600;7.310;2023-02-28T03:49:03;1.90;;;1.63;;
14052;SDS011;7101;51.600;7.310;2023-02-28T03:51:38;2.40;;;1.50;;
14052;SDS011;7101;51.600;7.310;2023-02-28T03:54:09;3.07;;;1.67;;
14052;SDS011;7101;51.600;7.310;2023-02-28T03:56:39;2.13;;;1.73;;
14052;SDS011;7101;51.600;7.310;2023-02-28T03:59:13;1.77;;;1.33;;
14052;SDS011;7101;51.600;7.310;2023-02-28T04:01:44;2.20;;;1.50;;
14052;SDS011;7101;51.600;7.310;2023-02-28T04:04:15;1.55;;;1.40;;
14052;SDS011;7101;51.600;7.310;2023-02-28T04:06:44;4.00;;;1.57;;
14052;SDS011;7101;51.600;7.310;2023-02-28T04:09:12;6.00;;;1.70;;
14052;SDS011;7101;51.600;7.310;2023-02-28T04:11:41;2.77;;;1.40;;
14052;SDS011;7101;51.600;7.310;2023-02-28T04:14:10;3.00;;;1.70;;
14052;SDS011;7101;51.600;7.310;2023-02-28T04:16:38;4.18;;;1.60;;
14052;SDS011;7101;51.600;7.310;2023-02-28T04:19:07;2.35;;;1.50;;
14052;SDS011;7101;51.600;7.310;2023-02-28T04:21:36;5.73;;;1.80;;
14052;SDS011;7101;51.600;7.310;2023-02-28T04:24:06;3.23;;;1.50;;
14052;SDS011;7101;51.600;7.310;2023-02-28T04:26:39;2.90;;;1.50;;
14052;SDS011;7101;51.600;7.310;2023-02-28T04:29:08;3.73;;;1.90;;
14052;SDS011;7101;51.600;7.310;2023-02-28T04:31:36;4.80;;;1.93;;
14052;SDS011;7101;51.600;7.310;2023-02-28T04:34:03;4.57;;;1.50;;
14052;SDS011;7101;51.600;7.310;2023-02-28T04:36:32;3.23;;;1.80;;
14052;SDS011;7101;51.600;7.310;2023-02-28T04:38:58;3.70;;;1.80;;
14052;SDS011;7101;51.600;7.310;2023-02-28T04:41:27;3.27;;;1.80;;
14052;SDS011;7101;51.600;7.310;2023-02-28T04:43:54;2.77;;;1.70;;
14052;SDS011;7101;51.600;7.310;2023-02-28T04:46:21;3.50;;;1.98;;
14052;SDS011;7101;51.600;7.310;2023-02-28T04:48:48;2.30;;;1.70;;
14052;SDS011;7101;51.600;7.310;2023-02-28T04:51:16;3.57;;;2.00;;
14052;SDS011;7101;51.600;7.310;2023-02-28T04:53:45;4.53;;;2.35;;
14052;SDS011;7101;51.600;7.310;2023-02-28T04:56:13;3.03;;;1.70;;
14052;SDS011;7101;51.600;7.310;2023-02-28T04:58:42;4.90;;;2.00;;
14052;SDS011;7101;51.600;7.310;2023-02-28T05:01:16;4.90;;;2.20;;
14052;SDS011;7101;51.600;7.310;2023-02-28T05:03:45;2.77;;;1.70;;
14052;SDS011;7101;51.600;7.310;2023-02-28T05:06:13;5.30;;;2.00;;
14052;SDS011;7101;51.600;7.310;2023-02-28T05:08:40;2.80;;;1.97;;
14052;SDS011;7101;51.600;7.310;2023-02-28T05:11:12;3.93;;;1.70;;
14052;SDS011;7101;51.600;7.310;2023-02-28T05:13:44;4.00;;;1.83;;
14052;SDS011;7101;51.600;7.310;2023-02-28T05:16:11;4.20;;;2.10;;
14052;SDS011;7101;51.600;7.310;2023-02-28T05:18:38;3.93;;;2.07;;
14052;SDS011;7101;51.600;7.310;2023-02-28T05:21:05;5.17;;;2.20;;
14052;SDS011;7101;51.600;7.310;2023-02-28T05:23:32;2.50;;;1.73;;
14052;SDS011;7101;51.600;7.310;2023-02-28T05:25:59;3.10;;;1.90;;
14052;SDS011;7101;51.600;7.310;2023-02-28T05:28:26;7.07;;;2.30;;
14052;SDS011;7101;51.600;7.310;2023-02-28T05:30:54;3.93;;;1.90;;
14052;SDS011;7101;51.600;7.310;2023-02-28T05:33:21;2.90;;;2.07;;
14052;SDS011;7101;51.600;7.310;2023-02-28T05:35:47;4.70;;;2.10;;
14052;SDS011;7101;51.600;7.310;2023-02-28T05:38:14;3.37;;;1.90;;
14052;SDS011;7101;51.600;7.310;2023-02-28T05:40:42;5.07;;;1.93;;
14052;SDS011;7101;51.600;7.310;2023-02-28T05:43:10;4.40;;;2.17;;
14052;SDS011;7101;51.600;7.310;2023-02-28T05:45:37;3.23;;;2.23;;
14052;SDS011;7101;51.600;7.310;2023-02-28T05:48:06;4.60;;;2.37;;
14052;SDS011;7101;51.600;7.310;2023-02-28T05:50:34;5.33;;;2.27;;
14052;SDS011;7101;51.600;7.310;2023-02-28T05:53:01;5.73;;;2.40;;
14052;SDS011;7101;51.600;7.310;2023-02-28T05:55:28;7.23;;;2.63;;
14052;SDS011;7101;51.600;7.310;2023-02-28T05:57:55;5.13;;;2.33;;
14052;SDS011;7101;51.600;7.310;2023-02-28T06:00:22;3.53;;;2.30;;
14052;SDS011;7101;51.600;7.310;2023-02-28T06:02:50;2.97;;;2.30;;
14052;SDS011;7101;51.600;7.310;2023-02-28T06:05:22;3.60;;;2.30;;
14052;SDS011;7101;51.600;7.310;2023-02-28T06:07:49;4.67;;;2.60;;
14052;SDS011;7101;51.600;7.310;2023-02-28T06:10:16;3.57;;;2.13;;
14052;SDS011;7101;51.600;7.310;2023-02-28T06:12:44;4.90;;;2.40;;
14052;SDS011;7101;51.600;7.310;2023-02-28T06:15:12;3.73;;;2.73;;
14052;SDS011;7101;51.600;7.310;2023-02-28T06:17:40;3.47;;;2.50;;
14052;SDS011;7101;51.600;7.310;2023-02-28T06:20:08;3.40;;;2.07;;
14052;SDS011;7101;51.600;7.310;2023-02-28T06:22:39;5.20;;;2.80;;
14052;SDS011;7101;51.600;7.310;2023-02-28T06:25:06;5.57;;;2.70;;
14052;SDS011;7101;51.600;7.310;2023-02-28T06:27:34;5.10;;;3.20;;
14052;SDS011;7101;51.600;7.310;2023-02-28T06:30:01;4.68;;;2.63;;
14052;SDS011;7101;51.600;7.310;2023-02-28T06:32:28;7.53;;;2.93;;
14052;SDS011;7101;51.600;7.310;2023-02-28T06:34:55;5.97;;;3.00;;
14052;SDS011;7101;51.600;7.310;2023-02-28T06:37:23;5.93;;;3.13;;
14052;SDS011;7101;51.600;7.310;2023-02-28T06:39:53;5.97;;;3.63;;
14052;SDS011;7101;51.600;7.310;2023-02-28T06:42:20;3.83;;;2.93;;
14052;SDS011;7101;51.600;7.310;2023-02-28T06:44:49;6.33;;;2.73;;
14052;SDS011;7101;51.600;7.310;2023-02-28T06:47:16;4.23;;;2.90;;
14052;SDS011;7101;51.600;7.310;2023-02-28T06:49:43;5.07;;;2.80;;
14052;SDS011;7101;51.600;7.310;2023-02-28T06:52:10;4.23;;;2.90;;
14052;SDS011;7101;51.600;7.310;2023-02-28T06:54:37;4.83;;;2.80;;
14052;SDS011;7101;51.600;7.310;2023-02-28T06:57:05;5.00;;;3.23;;
14052;SDS011;7101;51.600;7.310;2023-02-28T06:59:40;4.13;;;3.00;;
14052;SDS011;7101;51.600;7.310;2023-02-28T07:02:07;6.27;;;2.93;;
14052;SDS011;7101;51.600;7.310;2023-02-28T07:04:34;7.40;;;3.23;;
14052;SDS011;7101;51.600;7.310;2023-02-28T07:07:01;7.37;;;2.90;;
14052;SDS011;7101;51.600;7.310;2023-02-28T07:09:28;4.10;;;3.13;;
14052;SDS011;7101;51.600;7.310;2023-02-28T07:11:55;7.17;;;3.40;;
14052;SDS011;7101;51.600;7.310;2023-02-28T07:14:23;7.38;;;3.83;;
14052;SDS011;7101;51.600;7.310;2023-02-28T07:16:50;6.53;;;4.28;;
14052;SDS011;7101;51.600;7.310;2023-02-28T07:19:17;9.02;;;3.70;;
14052;SDS011;7101;51.600;7.310;2023-02-28T07:21:43;8.55;;;3.45;;
14052;SDS011;7101;51.600;7.310;2023-02-28T07:24:11;5.38;;;3.38;;
14052;SDS011;7101;51.600;7.310;2023-02-28T07:26:40;5.35;;;3.28;;
14052;SDS011;7101;51.600;7.310;2023-02-28T07:29:10;4.32;;;2.67;;
14052;SDS011;7101;51.600;7.310;2023-02-28T07:31:38;4.50;;;2.90;;
14052;SDS011;7101;51.600;7.310;2023-02-28T07:34:05;5.15;;;2.78;;
14052;SDS011;7101;51.600;7.310;2023-02-28T07:36:32;3.78;;;2.78;;
14052;SDS011;7101;51.600;7.310;2023-02-28T07:38:59;4.68;;;3.00;;
14052;SDS011;7101;51.600;7.310;2023-02-28T07:41:27;5.18;;;2.83;;
14052;SDS011;7101;51.600;7.310;2023-02-28T07:43:54;4.43;;;2.50;;
14052;SDS011;7101;51.600;7.310;2023-02-28T07:46:22;4.10;;;2.58;;
14052;SDS011;7101;51.600;7.310;2023-02-28T07:48:51;4.07;;;2.40;;
14052;SDS011;7101;51.600;7.310;2023-02-28T07:51:20;4.32;;;2.28;;
14052;SDS011;7101;51.600;7.310;2023-02-28T07:53:48;6.30;;;2.70;;
14052;SDS011;7101;51.600;7.310;2023-02-28T07:56:15;4.63;;;2.72;;
14052;SDS011;7101;51.600;7.310;2023-02-28T07:58:46;3.60;;;2.70;;
14052;SDS011;7101;51.600;7.310;2023-02-28T08:01:13;5.68;;;3.10;;
14052;SDS011;7101;51.600;7.310;2023-02-28T08:03:41;6.18;;;2.78;;
14052;SDS011;7101;51.600;7.310;2023-02-28T08:06:16;8.55;;;3.42;;
14052;SDS011;7101;51.600;7.310;2023-02-28T08:08:46;3.83;;;2.90;;
14052;SDS011;7101;51.600;7.310;2023-02-28T08:11:13;4.72;;;2.60;;
14052;SDS011;7101;51.600;7.310;2023-02-28T08:13:43;4.70;;;2.90;;
14052;SDS011;7101;51.600;7.310;2023-02-28T08:16:10;3.92;;;3.05;;
14052;SDS011;7101;51.600;7.310;2023-02-28T08:18:40;6.03;;;3.13;;
14052;SDS011;7101;51.600;7.310;2023-02-28T08:21:07;4.63;;;2.80;;
14052;SDS011;7101;51.600;7.310;2023-02-28T08:23:36;4.97;;;3.03;;
14052;SDS011;7101;51.600;7.310;2023-02-28T08:26:04;4.95;;;3.00;;
14052;SDS011;7101;51.600;7.310;2023-02-28T08:28:33;4.22;;;3.30;;
14052;SDS011;7101;51.600;7.310;2023-02-28T08:31:00;4.63;;;2.85;;
14052;SDS011;7101;51.600;7.310;2023-02-28T08:33:33;4.38;;;3.05;;
14052;SDS011;7101;51.600;7.310;2023-02-28T08:36:03;4.63;;;2.60;;
14052;SDS011;7101;51.600;7.310;2023-02-28T08:38:32;4.68;;;3.03;;
14052;SDS011;7101;51.600;7.310;2023-02-28T08:41:02;7.70;;;2.85;;
14052;SDS011;7101;51.600;7.310;2023-02-28T08:43:31;4.18;;;2.45;;
14052;SDS011;7101;51.600;7.310;2023-02-28T08:45:59;3.97;;;2.60;;
14052;SDS011;7101;51.600;7.310;2023-02-28T08:48:26;5.80;;;2.20;;
14052;SDS011;7101;51.600;7.310;2023-02-28T08:50:54;4.53;;;2.35;;
14052;SDS011;7101;51.600;7.310;2023-02-28T08:53:22;4.75;;;2.83;;
14052;SDS011;7101;51.600;7.310;2023-02-28T08:55:55;3.75;;;2.78;;
14052;SDS011;7101;51.600;7.310;2023-02-28T08:58:25;4.82;;;2.60;;
14052;SDS011;7101;51.600;7.310;2023-02-28T09:00:54;4.53;;;2.55;;
14052;SDS011;7101;51.600;7.310;2023-02-28T09:03:22;5.15;;;2.42;;
14052;SDS011;7101;51.600;7.310;2023-02-28T09:05:56;6.32;;;2.53;;
14052;SDS011;7101;51.600;7.310;2023-02-28T09:08:26;3.55;;;2.40;;
14052;SDS011;7101;51.600;7.310;2023-02-28T09:10:54;3.15;;;2.30;;
14052;SDS011;7101;51.600;7.310;2023-02-28T09:13:23;4.20;;;2.63;;
14052;SDS011;7101;51.600;7.310;2023-02-28T09:15:51;4.47;;;2.35;;
14052;SDS011;7101;51.600;7.310;2023-02-28T09:18:20;5.75;;;2.22;;
14052;SDS011;7101;51.600;7.310;2023-02-28T09:20:47;3.38;;;2.20;;
14052;SDS011;7101;51.600;7.310;2023-02-28T09:23:15;6.03;;;2.50;;
14052;SDS011;7101;51.600;7.310;2023-02-28T09:25:45;4.78;;;2.55;;
14052;SDS011;7101;51.600;7.310;2023-02-28T09:28:13;3.85;;;2.33;;
14052;SDS011;7101;51.600;7.310;2023-02-28T09:30:42;3.13;;;2.20;;
14052;SDS011;7101;51.600;7.310;2023-02-28T09:33:12;3.28;;;2.42;;
14052;SDS011;7101;51.600;7.310;2023-02-28T09:35:40;2.95;;;2.28;;
14052;SDS011;7101;51.600;7.310;2023-02-28T09:38:08;3.40;;;2.40;;
14052;SDS011;7101;51.600;7.310;2023-02-28T09:40:36;3.15;;;2.53;;
14052;SDS011;7101;51.600;7.310;2023-02-28T09:43:15;2.70;;;2.13;;
14052;SDS011;7101;51.600;7.310;2023-02-28T09:45:46;3.38;;;2.05;;
14052;SDS011;7101;51.600;7.310;2023-02-28T09:48:20;5.60;;;2.35;;
14052;SDS011;7101;51.600;7.310;2023-02-28T09:50:55;3.65;;;2.22;;
14052;SDS011;7101;51.600;7.310;2023-02-28T09:53:30;3.83;;;2.58;;
14052;SDS011;7101;51.600;7.310;2023-02-28T09:56:00;8.00;;;2.15;;
14052;SDS011;7101;51.600;7.310;2023-02-28T09:58:31;4.93;;;2.42;;
14052;SDS011;7101;51.600;7.310;2023-02-28T10:01:05;3.67;;;2.60;;
14052;SDS011;7101;51.600;7.310;2023-02-28T10:03:42;6.03;;;3.08;;
14052;SDS011;7101;51.600;7.310;2023-02-28T10:06:12;3.17;;;2.40;;
14052;SDS011;7101;51.600;7.310;2023-02-28T10:11:18;3.55;;;2.20;;
14052;SDS011;7101;51.600;7.310;2023-02-28T10:13:52;2.28;;;1.83;;
14052;SDS011;7101;51.600;7.310;2023-02-28T10:16:25;2.50;;;1.88;;
14052;SDS011;7101;51.600;7.310;2023-02-28T10:18:58;2.90;;;1.83;;
14052;SDS011;7101;51.600;7.310;2023-02-28T10:21:30;3.10;;;1.80;;
14052;SDS011;7101;51.600;7.310;2023-02-28T10:24:12;4.45;;;1.77;;
14052;SDS011;7101;51.600;7.310;2023-02-28T10:26:46;4.35;;;2.30;;
14052;SDS011;7101;51.600;7.310;2023-02-28T10:29:14;3.83;;;2.30;;
14052;SDS011;7101;51.600;7.310;2023-02-28T10:31:41;4.25;;;1.90;;
14052;SDS011;7101;51.600;7.310;2023-02-28T10:34:12;2.25;;;1.63;;
14052;SDS011;7101;51.600;7.310;2023-02-28T10:36:39;2.40;;;1.40;;
14052;SDS011;7101;51.600;7.310;2023-02-28T10:42:01;2.42;;;1.40;;
14052;SDS011;7101;51.600;7.310;2023-02-28T10:44:32;2.03;;;1.35;;
14052;SDS011;7101;51.600;7.310;2023-02-28T10:46:59;2.15;;;1.40;;
14052;SDS011;7101;51.600;7.310;2023-02-28T10:49:29;2.47;;;1.50;;
14052;SDS011;7101;51.600;7.310;2023-02-28T10:51:56;3.38;;;1.48;;
14052;SDS011;7101;51.600;7.310;2023-02-28T10:54:27;5.55;;;1.77;;
14052;SDS011;7101;51.600;7.310;2023-02-28T10:57:05;2.70;;;1.60;;
14052;SDS011;7101;51.600;7.310;2023-02-28T10:59:34;2.50;;;1.65;;
14052;SDS011;7101;51.600;7.310;2023-02-28T11:02:01;2.80;;;1.55;;
14052;SDS011;7101;51.600;7.310;2023-02-28T11:04:50;2.75;;;1.35;;
14052;SDS011;7101;51.600;7.310;2023-02-28T11:07:18;7.68;;;2.10;;
14052;SDS011;7101;51.600;7.310;2023-02-28T11:09:48;1.95;;;1.30;;
14052;SDS011;7101;51.600;7.310;2023-02-28T11:12:23;3.47;;;1.70;;
14052;SDS011;7101;51.600;7.310;2023-02-28T11:14:55;2.50;;;1.55;;
14052;SDS011;7101;51.600;7.310;2023-02-28T11:17:26;3.53;;;1.67;;
14052;SDS011;7101;51.600;7.310;2023-02-28T11:22:29;2.30;;;1.25;;
14052;SDS011;7101;51.600;7.310;2023-02-28T11:25:01;2.17;;;1.50;;
14052;SDS011;7101;51.600;7.310;2023-02-28T11:27:42;3.25;;;1.67;;
14052;SDS011;7101;51.600;7.310;2023-02-28T11:32:57;3.45;;;1.60;;
14052;SDS011;7101;51.600;7.310;2023-02-28T11:35:28;2.28;;;1.50;;
14052;SDS011;7101;51.600;7.310;2023-02-28T11:37:57;2.60;;;1.67;;
14052;SDS011;7101;51.600;7.310;2023-02-28T11:40:29;3.15;;;1.50;;
14052;SDS011;7101;51.600;7.310;2023-02-28T11:43:07;3.38;;;1.92;;
14052;SDS011;7101;51.600;7.310;2023-02-28T11:45:53;2.55;;;1.60;;
14052;SDS011;7101;51.600;7.310;2023-02-28T11:48:33;2.30;;;1.67;;
14052;SDS011;7101;51.600;7.310;2023-02-28T11:51:12;2.45;;;1.70;;
14052;SDS011;7101;51.600;7.310;2023-02-28T11:53:49;2.75;;;1.90;;
14052;SDS011;7101;51.600;7.310;2023-02-28T11:56:28;3.58;;;2.00;;
14052;SDS011;7101;51.600;7.310;2023-02-28T11:59:02;3.22;;;1.95;;
14052;SDS011;7101;51.600;7.310;2023-02-28T12:01:55;3.17;;;1.95;;
14052;SDS011;7101;51.600;7.310;2023-02-28T12:04:34;2.15;;;1.85;;
14052;SDS011;7101;51.600;7.310;2023-02-28T12:07:11;2.60;;;1.80;;
14052;SDS011;7101;51.600;7.310;2023-02-28T12:09:49;4.43;;;2.72;;
14052;SDS011;7101;51.600;7.310;2023-02-28T12:12:27;3.92;;;2.40;;
14052;SDS011;7101;51.600;7.310;2023-02-28T12:18:18;3.53;;;2.20;;
14052;SDS011;7101;51.600;7.310;2023-02-28T12:21:01;3.40;;;2.10;;
14052;SDS011;7101;51.600;7.310;2023-02-28T12:23:41;2.38;;;1.83;;
14052;SDS011;7101;51.600;7.310;2023-02-28T12:26:19;2.63;;;1.95;;
14052;SDS011;7101;51.600;7.310;2023-02-28T12:29:01;3.35;;;2.38;;
14052;SDS011;7101;51.600;7.310;2023-02-28T12:31:37;3.45;;;2.10;;
14052;SDS011;7101;51.600;7.310;2023-02-28T12:34:09;2.67;;;2.08;;
14052;SDS011;7101;51.600;7.310;2023-02-28T12:36:38;2.78;;;2.00;;
14052;SDS011;7101;51.600;7.310;2023-02-28T12:39:08;4.82;;;2.28;;
14052;SDS011;7101;51.600;7.310;2023-02-28T12:41:41;2.55;;;1.70;;
14052;SDS011;7101;51.600;7.310;2023-02-28T12:44:12;3.35;;;1.50;;
14052;SDS011;7101;51.600;7.310;2023-02-28T12:46:45;3.80;;;2.38;;
14052;SDS011;7101;51.600;7.310;2023-02-28T12:49:16;2.25;;;1.50;;
14052;SDS011;7101;51.600;7.310;2023-02-28T12:51:47;3.70;;;1.45;;
14052;SDS011;7101;51.600;7.310;2023-02-28T12:54:19;1.50;;;1.40;;
14052;SDS011;7101;51.600;7.310;2023-02-28T12:56:52;2.35;;;1.60;;
14052;SDS011;7101;51.600;7.310;2023-02-28T12:59:25;2.20;;;1.40;;
14052;SDS011;7101;51.600;7.310;2023-02-28T13:02:02;2.80;;;1.50;;
14052;SDS011;7101;51.600;7.310;2023-02-28T13:08:02;2.17;;;1.60;;
14052;SDS011;7101;51.600;7.310;2023-02-28T13:10:39;3.55;;;1.88;;
14052;SDS011;7101;51.600;7.310;2023-02-28T13:13:11;2.35;;;1.70;;
14052;SDS011;7101;51.600;7.310;2023-02-28T13:15:41;4.57;;;2.25;;
14052;SDS011;7101;51.600;7.310;2023-02-28T13:18:27;3.75;;;2.10;;
14052;SDS011;7101;51.600;7.310;2023-02-28T13:20:56;2.22;;;2.03;;
14052;SDS011;7101;51.600;7.310;2023-02-28T13:23:38;5.80;;;2.10;;
14052;SDS011;7101;51.600;7.310;2023-02-28T13:26:09;3.03;;;2.20;;
14052;SDS011;7101;51.600;7.310;2023-02-28T13:38:12;3.88;;;2.28;;
14052;SDS011;7101;51.600;7.310;2023-02-28T13:40:44;2.65;;;2.42;;
14052;SDS011;7101;51.600;7.310;2023-02-28T13:43:13;3.58;;;2.00;;
14052;SDS011;7101;51.600;7.310;2023-02-28T13:48:35;2.30;;;1.80;;
14052;SDS011;7101;51.600;7.310;2023-02-28T13:53:56;3.05;;;1.80;;
14052;SDS011;7101;51.600;7.310;2023-02-28T13:56:34;4.18;;;2.30;;
14052;SDS011;7101;51.600;7.310;2023-02-28T13:59:16;4.20;;;2.25;;
14052;SDS011;7101;51.600;7.310;2023-02-28T14:01:54;2.85;;;2.20;;
14052;SDS011;7101;51.600;7.310;2023-02-28T14:04:35;2.53;;;2.00;;
14052;SDS011;7101;51.600;7.310;2023-02-28T14:07:31;3.20;;;2.08;;
14052;SDS011;7101;51.600;7.310;2023-02-28T14:10:04;4.88;;;2.30;;
14052;SDS011;7101;51.600;7.310;2023-02-28T14:15:36;4.93;;;2.60;;
14052;SDS011;7101;51.600;7.310;2023-02-28T14:18:13;5.32;;;2.50;;
14052;SDS011;7101;51.600;7.310;2023-02-28T14:20:47;3.45;;;2.22;;
14052;SDS011;7101;51.600;7.310;2023-02-28T14:23:17;3.95;;;2.53;;
14052;SDS011;7101;51.600;7.310;2023-02-28T14:26:00;3.10;;;2.70;;
14052;SDS011;7101;51.600;7.310;2023-02-28T14:28:42;5.68;;;2.83;;
14052;SDS011;7101;51.600;7.310;2023-02-28T14:31:18;4.07;;;2.58;;
14052;SDS011;7101;51.600;7.310;2023-02-28T14:33:59;3.60;;;2.20;;
14052;SDS011;7101;51.600;7.310;2023-02-28T14:36:32;4.68;;;2.30;;
14052;SDS011;7101;51.600;7.310;2023-02-28T14:39:06;5.28;;;2.15;;
14052;SDS011;7101;51.600;7.310;2023-02-28T14:41:39;4.22;;;2.08;;
14052;SDS011;7101;51.600;7.310;2023-02-28T14:44:15;3.38;;;2.00;;
14052;SDS011;7101;51.600;7.310;2023-02-28T14:46:46;4.03;;;1.90;;
14052;SDS011;7101;51.600;7.310;2023-02-28T14:49:17;3.60;;;2.13;;
14052;SDS011;7101;51.600;7.310;2023-02-28T14:51:49;4.03;;;2.30;;
14052;SDS011;7101;51.600;7.310;2023-02-28T14:54:27;2.70;;;2.05;;
14052;SDS011;7101;51.600;7.310;2023-02-28T14:56:55;2.40;;;2.10;;
14052;SDS011;7101;51.600;7.310;2023-02-28T14:59:26;3.72;;;2.30;;
14052;SDS011;7101;51.600;7.310;2023-02-28T15:04:56;4.63;;;2.53;;
14052;SDS011;7101;51.600;7.310;2023-02-28T15:07:25;2.50;;;2.30;;
14052;SDS011;7101;51.600;7.310;2023-02-28T15:10:08;2.75;;;2.22;;
14052;SDS011;7101;51.600;7.310;2023-02-28T15:12:37;3.60;;;2.40;;
14052;SDS011;7101;51.600;7.310;2023-02-28T15:15:13;4.40;;;2.70;;
14052;SDS011;7101;51.600;7.310;2023-02-28T15:17:46;3.78;;;2.28;;
14052;SDS011;7101;51.600;7.310;2023-02-28T15:20:17;3.08;;;2.30;;
14052;SDS011;7101;51.600;7.310;2023-02-28T15:22:45;5.07;;;2.20;;
14052;SDS011;7101;51.600;7.310;2023-02-28T15:25:14;7.50;;;2.67;;
14052;SDS011;7101;51.600;7.310;2023-02-28T15:27:45;4.75;;;2.25;;
14052;SDS011;7101;51.600;7.310;2023-02-28T15:30:15;4.93;;;2.40;;
14052;SDS011;7101;51.600;7.310;2023-02-28T15:32:46;3.80;;;2.40;;
14052;SDS011;7101;51.600;7.310;2023-02-28T15:35:30;3.67;;;2.30;;
14052;SDS011;7101;51.600;7.310;2023-02-28T15:38:00;3.50;;;2.17;;
14052;SDS011;7101;51.600;7.310;2023-02-28T15:40:31;5.03;;;2.55;;
14052;SDS011;7101;51.600;7.310;2023-02-28T15:43:06;3.33;;;2.25;;
14052;SDS011;7101;51.600;7.310;2023-02-28T15:45:41;2.92;;;2.40;;
14052;SDS011;7101;51.600;7.310;2023-02-28T15:48:17;4.35;;;2.50;;
14052;SDS011;7101;51.600;7.310;2023-02-28T15:50:50;4.25;;;2.53;;
14052;SDS011;7101;51.600;7.310;2023-02-28T15:53:21;3.33;;;2.22;;
14052;SDS011;7101;51.600;7.310;2023-02-28T15:55:59;5.72;;;2.63;;
14052;SDS011;7101;51.600;7.310;2023-02-28T15:58:30;3.47;;;2.15;;
14052;SDS011;7101;51.600;7.310;2023-02-28T16:01:03;3.00;;;2.20;;
14052;SDS011;7101;51.600;7.310;2023-02-28T16:03:37;2.50;;;2.05;;
14052;SDS011;7101;51.600;7.310;2023-02-28T16:06:09;3.95;;;2.20;;